sensor_id;sensor_type;location;lat;lon;timestamp;pressure;altitude;pressure_sealevel;temperature;humidity
55044;BME280;54902;50.420;18.854;2023-02-11T00:00:23;103011.76;;;-0.37;68.61
55044;BME280;54902;50.420;18.854;2023-02-11T00:00:53;103013.56;;;-0.37;68.61
55044;BME280;54902;50.420;18.854;2023-02-11T00:01:30;103009.08;;;-0.38;68.64
55044;BME280;54902;50.420;18.854;2023-02-11T00:02:02;103019.83;;;-0.38;68.58
55044;BME280;54902;50.420;18.854;2023-02-11T00:02:34;103013.58;;;-0.39;68.59
55044;BME280;54902;50.420;18.854;2023-02-11T00:03:05;103017.15;;;-0.40;68.57
55044;BME280;54902;50.420;18.854;2023-02-11T00:03:36;103011.79;;;-0.41;68.60
55044;BME280;54902;50.420;18.854;2023-02-11T00:04:08;103012.70;;;-0.44;68.61
55044;BME280;54902;50.420;18.854;2023-02-11T00:04:39;103019.84;;;-0.41;68.59
55044;BME280;54902;50.420;18.854;2023-02-11T00:05:10;103014.49;;;-0.43;68.59
55044;BME280;54902;50.420;18.854;2023-02-11T00:05:41;103015.36;;;-0.42;68.58
55044;BME280;54902;50.420;18.854;2023-02-11T00:06:12;103014.49;;;-0.43;68.59
55044;BME280;54902;50.420;18.854;2023-02-11T00:06:44;103017.16;;;-0.43;68.58
55044;BME280;54902;50.420;18.854;2023-02-11T00:07:14;103015.37;;;-0.44;68.60
55044;BME280;54902;50.420;18.854;2023-02-11T00:07:45;103012.70;;;-0.44;68.61
55044;BME280;54902;50.420;18.854;2023-02-11T00:08:16;103007.34;;;-0.45;68.62
55044;BME280;54902;50.420;18.854;2023-02-11T00:08:47;103010.00;;;-0.44;68.65
55044;BME280;54902;50.420;18.854;2023-02-11T00:09:19;103010.90;;;-0.45;68.66
55044;BME280;54902;50.420;18.854;2023-02-11T00:09:50;103010.90;;;-0.45;68.67
55044;BME280;54902;50.420;18.854;2023-02-11T00:10:20;103016.26;;;-0.45;68.67
55044;BME280;54902;50.420;18.854;2023-02-11T00:10:56;103008.22;;;-0.45;68.68
55044;BME280;54902;50.420;18.854;2023-02-11T00:11:28;103010.02;;;-0.47;68.68
55044;BME280;54902;50.420;18.854;2023-02-11T00:12:00;103004.64;;;-0.45;68.68
55044;BME280;54902;50.420;18.854;2023-02-11T00:12:31;103005.54;;;-0.48;68.69
55044;BME280;54902;50.420;18.854;2023-02-11T00:13:01;103012.71;;;-0.47;68.68
55044;BME280;54902;50.420;18.854;2023-02-11T00:13:33;103002.86;;;-0.48;68.68
55044;BME280;54902;50.420;18.854;2023-02-11T00:14:05;103010.92;;;-0.48;68.69
55044;BME280;54902;50.420;18.854;2023-02-11T00:14:37;103004.66;;;-0.48;68.71
55044;BME280;54902;50.420;18.854;2023-02-11T00:15:09;102992.14;;;-0.49;68.73
55044;BME280;54902;50.420;18.854;2023-02-11T00:15:40;102975.20;;;-0.60;68.72
55044;BME280;54902;50.420;18.854;2023-02-11T00:16:15;102997.51;;;-0.49;68.75
55044;BME280;54902;50.420;18.854;2023-02-11T00:16:46;102994.84;;;-0.51;68.74
55044;BME280;54902;50.420;18.854;2023-02-11T00:17:16;102989.47;;;-0.51;68.75
55044;BME280;54902;50.420;18.854;2023-02-11T00:17:47;102993.92;;;-0.51;68.76
55044;BME280;54902;50.420;18.854;2023-02-11T00:18:19;102992.15;;;-0.52;68.77
55044;BME280;54902;50.420;18.854;2023-02-11T00:18:51;102992.15;;;-0.52;68.76
55044;BME280;54902;50.420;18.854;2023-02-11T00:19:23;102996.61;;;-0.53;68.80
55044;BME280;54902;50.420;18.854;2023-02-11T00:19:54;102994.83;;;-0.54;68.79
55044;BME280;54902;50.420;18.854;2023-02-11T00:20:25;102994.83;;;-0.54;68.77
55044;BME280;54902;50.420;18.854;2023-02-11T00:20:56;103003.78;;;-0.55;68.78
55044;BME280;54902;50.420;18.854;2023-02-11T00:21:27;102994.83;;;-0.54;68.78
55044;BME280;54902;50.420;18.854;2023-02-11T00:21:58;102994.83;;;-0.55;68.79
55044;BME280;54902;50.420;18.854;2023-02-11T00:22:29;103002.88;;;-0.55;68.78
55044;BME280;54902;50.420;18.854;2023-02-11T00:23:00;103005.58;;;-0.57;68.81
55044;BME280;54902;50.420;18.854;2023-02-11T00:23:31;103001.13;;;-0.56;68.84
55044;BME280;54902;50.420;18.854;2023-02-11T00:24:02;103000.21;;;-0.57;68.84
55044;BME280;54902;50.420;18.854;2023-02-11T00:24:35;103003.78;;;-0.58;68.85
55044;BME280;54902;50.420;18.854;2023-02-11T00:25:06;102996.66;;;-0.58;68.83
55044;BME280;54902;50.420;18.854;2023-02-11T00:25:42;103002.02;;;-0.58;68.85
55044;BME280;54902;50.420;18.854;2023-02-11T00:26:19;103001.11;;;-0.59;68.86
55044;BME280;54902;50.420;18.854;2023-02-11T00:26:50;102990.37;;;-0.59;68.86
55044;BME280;54902;50.420;18.854;2023-02-11T00:27:21;102999.35;;;-0.60;68.83
55044;BME280;54902;50.420;18.854;2023-02-11T00:27:52;102999.35;;;-0.60;68.85
55044;BME280;54902;50.420;18.854;2023-02-11T00:28:23;103006.48;;;-0.60;68.86
55044;BME280;54902;50.420;18.854;2023-02-11T00:28:54;103002.00;;;-0.61;68.88
55044;BME280;54902;50.420;18.854;2023-02-11T00:29:26;103003.80;;;-0.60;68.89
55044;BME280;54902;50.420;18.854;2023-02-11T00:29:57;102998.44;;;-0.62;68.90
55044;BME280;54902;50.420;18.854;2023-02-11T00:30:31;102999.31;;;-0.61;68.90
55044;BME280;54902;50.420;18.854;2023-02-11T00:31:03;102994.88;;;-0.62;68.93
55044;BME280;54902;50.420;18.854;2023-02-11T00:31:34;102988.60;;;-0.63;68.95
55044;BME280;54902;50.420;18.854;2023-02-11T00:32:05;102993.09;;;-0.63;68.98
55044;BME280;54902;50.420;18.854;2023-02-11T00:32:38;102978.78;;;-0.68;68.99
55044;BME280;54902;50.420;18.854;2023-02-11T00:33:11;102990.41;;;-0.65;68.98
55044;BME280;54902;50.420;18.854;2023-02-11T00:33:43;102985.92;;;-0.64;68.98
55044;BME280;54902;50.420;18.854;2023-02-11T00:34:14;102980.55;;;-0.64;68.96
55044;BME280;54902;50.420;18.854;2023-02-11T00:34:44;102985.94;;;-0.66;68.95
55044;BME280;54902;50.420;18.854;2023-02-11T00:35:15;102984.13;;;-0.65;68.97
55044;BME280;54902;50.420;18.854;2023-02-11T00:35:46;102970.75;;;-0.71;68.97
55044;BME280;54902;50.420;18.854;2023-02-11T00:36:23;102982.38;;;-0.66;68.99
55044;BME280;54902;50.420;18.854;2023-02-11T00:36:54;102981.46;;;-0.67;68.99
55044;BME280;54902;50.420;18.854;2023-02-11T00:37:25;102979.66;;;-0.68;68.98
55044;BME280;54902;50.420;18.854;2023-02-11T00:37:56;102988.63;;;-0.67;68.99
55044;BME280;54902;50.420;18.854;2023-02-11T00:38:27;102982.35;;;-0.68;69.01
55044;BME280;54902;50.420;18.854;2023-02-11T00:38:58;102984.16;;;-0.68;69.02
55044;BME280;54902;50.420;18.854;2023-02-11T00:39:29;102989.52;;;-0.68;69.02
55044;BME280;54902;50.420;18.854;2023-02-11T00:40:02;102978.78;;;-0.68;69.04
55044;BME280;54902;50.420;18.854;2023-02-11T00:40:33;102971.63;;;-0.69;69.04
55044;BME280;54902;50.420;18.854;2023-02-11T00:41:04;102967.19;;;-0.70;69.05
55044;BME280;54902;50.420;18.854;2023-02-11T00:41:35;102970.75;;;-0.71;69.05
55044;BME280;54902;50.420;18.854;2023-02-11T00:42:06;102973.44;;;-0.71;69.07
55044;BME280;54902;50.420;18.854;2023-02-11T00:42:37;102968.06;;;-0.71;69.06
55044;BME280;54902;50.420;18.854;2023-02-11T00:43:08;102955.55;;;-0.72;69.07
55044;BME280;54902;50.420;18.854;2023-02-11T00:43:39;102964.48;;;-0.72;69.10
55044;BME280;54902;50.420;18.854;2023-02-11T00:44:10;102958.23;;;-0.72;69.10
55044;BME280;54902;50.420;18.854;2023-02-11T00:44:41;102943.93;;;-0.73;69.13
55044;BME280;54902;50.420;18.854;2023-02-11T00:45:12;102955.55;;;-0.72;69.14
55044;BME280;54902;50.420;18.854;2023-02-11T00:45:43;102953.76;;;-0.73;69.15
55044;BME280;54902;50.420;18.854;2023-02-11T00:46:15;102947.50;;;-0.72;69.14
55044;BME280;54902;50.420;18.854;2023-02-11T00:46:46;102950.20;;;-0.74;69.12
55044;BME280;54902;50.420;18.854;2023-02-11T00:47:16;102946.63;;;-0.74;69.12
55044;BME280;54902;50.420;18.854;2023-02-11T00:47:47;102925.18;;;-0.80;69.15
55044;BME280;54902;50.420;18.854;2023-02-11T00:48:18;102937.67;;;-0.75;69.14
55044;BME280;54902;50.420;18.854;2023-02-11T00:48:49;102935.90;;;-0.74;69.18
55044;BME280;54902;50.420;18.854;2023-02-11T00:49:27;102932.30;;;-0.75;69.19
55044;BME280;54902;50.420;18.854;2023-02-11T00:49:57;102931.43;;;-0.75;69.17
55044;BME280;54902;50.420;18.854;2023-02-11T00:50:30;102933.19;;;-0.76;69.14
55044;BME280;54902;50.420;18.854;2023-02-11T00:51:01;102926.94;;;-0.76;69.05
55044;BME280;54902;50.420;18.854;2023-02-11T00:51:33;102935.00;;;-0.76;69.11
55044;BME280;54902;50.420;18.854;2023-02-11T00:52:04;102931.43;;;-0.77;69.14
55044;BME280;54902;50.420;18.854;2023-02-11T00:52:35;102942.16;;;-0.75;69.17
55044;BME280;54902;50.420;18.854;2023-02-11T00:53:06;102931.43;;;-0.77;69.17
55044;BME280;54902;50.420;18.854;2023-02-11T00:53:38;102938.58;;;-0.77;69.18
55044;BME280;54902;50.420;18.854;2023-02-11T00:54:09;102934.09;;;-0.78;69.18
55044;BME280;54902;50.420;18.854;2023-02-11T00:54:40;102916.26;;;-0.88;69.18
55044;BME280;54902;50.420;18.854;2023-02-11T00:55:11;102941.26;;;-0.77;69.20
55044;BME280;54902;50.420;18.854;2023-02-11T00:55:42;102938.58;;;-0.79;69.22
55044;BME280;54902;50.420;18.854;2023-02-11T00:56:12;102930.53;;;-0.77;69.24
55044;BME280;54902;50.420;18.854;2023-02-11T00:56:43;102935.01;;;-0.78;69.25
55044;BME280;54902;50.420;18.854;2023-02-11T00:57:14;102930.53;;;-0.79;69.27
55044;BME280;54902;50.420;18.854;2023-02-11T00:57:45;102928.73;;;-0.78;69.31
55044;BME280;54902;50.420;18.854;2023-02-11T00:58:16;102921.59;;;-0.78;69.31
55044;BME280;54902;50.420;18.854;2023-02-11T00:58:48;102917.99;;;-0.78;69.29
55044;BME280;54902;50.420;18.854;2023-02-11T00:59:19;102925.17;;;-0.79;69.30
55044;BME280;54902;50.420;18.854;2023-02-11T00:59:49;102914.44;;;-0.80;69.32
55044;BME280;54902;50.420;18.854;2023-02-11T01:00:20;102909.08;;;-0.80;69.29
55044;BME280;54902;50.420;18.854;2023-02-11T01:00:53;102914.44;;;-0.80;69.32
55044;BME280;54902;50.420;18.854;2023-02-11T01:01:24;102909.96;;;-0.80;69.33
55044;BME280;54902;50.420;18.854;2023-02-11T01:01:55;102908.20;;;-0.81;69.35
55044;BME280;54902;50.420;18.854;2023-02-11T01:02:26;102904.60;;;-0.81;69.39
55044;BME280;54902;50.420;18.854;2023-02-11T01:02:57;102908.20;;;-0.81;69.40
55044;BME280;54902;50.420;18.854;2023-02-11T01:03:28;102909.98;;;-0.81;69.35
55044;BME280;54902;50.420;18.854;2023-02-11T01:03:59;102904.60;;;-0.81;69.36
55044;BME280;54902;50.420;18.854;2023-02-11T01:04:30;102900.16;;;-0.81;69.32
55044;BME280;54902;50.420;18.854;2023-02-11T01:05:01;102899.24;;;-0.81;69.34
55044;BME280;54902;50.420;18.854;2023-02-11T01:05:32;102900.13;;;-0.82;69.35
55044;BME280;54902;50.420;18.854;2023-02-11T01:06:04;102898.35;;;-0.82;69.38
55044;BME280;54902;50.420;18.854;2023-02-11T01:06:36;102905.49;;;-0.82;69.41
55044;BME280;54902;50.420;18.854;2023-02-11T01:07:07;102909.11;;;-0.83;69.39
55044;BME280;54902;50.420;18.854;2023-02-11T01:07:37;102905.49;;;-0.82;69.44
55044;BME280;54902;50.420;18.854;2023-02-11T01:08:08;102903.75;;;-0.83;69.47
55044;BME280;54902;50.420;18.854;2023-02-11T01:08:40;102894.77;;;-0.82;69.51
55044;BME280;54902;50.420;18.854;2023-02-11T01:09:10;102906.41;;;-0.82;69.52
55044;BME280;54902;50.420;18.854;2023-02-11T01:09:41;102898.38;;;-0.83;69.53
55044;BME280;54902;50.420;18.854;2023-02-11T01:10:13;102900.13;;;-0.82;69.54
55044;BME280;54902;50.420;18.854;2023-02-11T01:10:44;102897.46;;;-0.84;69.48
55044;BME280;54902;50.420;18.854;2023-02-11T01:11:17;102905.49;;;-0.82;69.47
55044;BME280;54902;50.420;18.854;2023-02-11T01:11:50;102897.46;;;-0.84;69.48
55044;BME280;54902;50.420;18.854;2023-02-11T01:12:21;102901.06;;;-0.85;69.47
55044;BME280;54902;50.420;18.854;2023-02-11T01:12:52;102911.79;;;-0.85;69.48
55044;BME280;54902;50.420;18.854;2023-02-11T01:13:24;102904.63;;;-0.84;69.55
55044;BME280;54902;50.420;18.854;2023-02-11T01:13:55;102907.31;;;-0.84;69.57
55044;BME280;54902;50.420;18.854;2023-02-11T01:14:26;102909.98;;;-0.84;69.61
55044;BME280;54902;50.420;18.854;2023-02-11T01:14:57;102908.20;;;-0.85;69.58
55044;BME280;54902;50.420;18.854;2023-02-11T01:15:28;102910.01;;;-0.86;69.58
55044;BME280;54902;50.420;18.854;2023-02-11T01:15:59;102905.52;;;-0.85;69.60
55044;BME280;54902;50.420;18.854;2023-02-11T01:16:30;102910.89;;;-0.85;69.60
55044;BME280;54902;50.420;18.854;2023-02-11T01:17:04;102883.24;;;-0.99;69.61
55044;BME280;54902;50.420;18.854;2023-02-11T01:17:35;102904.64;;;-0.86;69.74
55044;BME280;54902;50.420;18.854;2023-02-11T01:18:06;102905.52;;;-0.85;69.62
55044;BME280;54902;50.420;18.854;2023-02-11T01:18:37;102904.64;;;-0.86;69.59
55044;BME280;54902;50.420;18.854;2023-02-11T01:19:08;102910.01;;;-0.86;69.55
55044;BME280;54902;50.420;18.854;2023-02-11T01:19:39;102905.52;;;-0.85;69.56
55044;BME280;54902;50.420;18.854;2023-02-11T01:20:17;102901.04;;;-0.86;69.61
55044;BME280;54902;50.420;18.854;2023-02-11T01:20:50;102893.01;;;-0.86;69.68
55044;BME280;54902;50.420;18.854;2023-02-11T01:21:21;102898.35;;;-0.86;69.71
55044;BME280;54902;50.420;18.854;2023-02-11T01:21:52;102897.48;;;-0.85;69.62
55044;BME280;54902;50.420;18.854;2023-02-11T01:22:23;102893.01;;;-0.86;69.73
55044;BME280;54902;50.420;18.854;2023-02-11T01:22:54;102895.68;;;-0.86;69.77
55044;BME280;54902;50.420;18.854;2023-02-11T01:23:25;102890.30;;;-0.86;69.78
55044;BME280;54902;50.420;18.854;2023-02-11T01:23:56;102900.15;;;-0.85;69.77
55044;BME280;54902;50.420;18.854;2023-02-11T01:24:27;102893.01;;;-0.86;69.78
55044;BME280;54902;50.420;18.854;2023-02-11T01:24:58;102893.92;;;-0.87;69.75
55044;BME280;54902;50.420;18.854;2023-02-11T01:25:29;102892.12;;;-0.87;69.76
55044;BME280;54902;50.420;18.854;2023-02-11T01:26:00;102891.23;;;-0.87;69.77
55044;BME280;54902;50.420;18.854;2023-02-11T01:26:32;102886.76;;;-0.87;69.78
55044;BME280;54902;50.420;18.854;2023-02-11T01:27:03;102887.63;;;-0.86;69.79
55044;BME280;54902;50.420;18.854;2023-02-11T01:27:34;102880.52;;;-0.87;69.75
55044;BME280;54902;50.420;18.854;2023-02-11T01:28:06;102885.89;;;-0.89;69.69
55044;BME280;54902;50.420;18.854;2023-02-11T01:28:37;102887.65;;;-0.88;69.72
55044;BME280;54902;50.420;18.854;2023-02-11T01:29:08;102888.56;;;-0.87;69.71
55044;BME280;54902;50.420;18.854;2023-02-11T01:29:39;102890.32;;;-0.88;69.74
55044;BME280;54902;50.420;18.854;2023-02-11T01:30:13;102884.08;;;-0.88;69.74
55044;BME280;54902;50.420;18.854;2023-02-11T01:30:47;102887.65;;;-0.88;69.69
55044;BME280;54902;50.420;18.854;2023-02-11T01:31:17;102886.77;;;-0.88;69.74
55044;BME280;54902;50.420;18.854;2023-02-11T01:31:48;102879.59;;;-0.88;69.76
55044;BME280;54902;50.420;18.854;2023-02-11T01:32:19;102882.27;;;-0.88;69.78
55044;BME280;54902;50.420;18.854;2023-02-11T01:32:50;102887.65;;;-0.88;69.79
55044;BME280;54902;50.420;18.854;2023-02-11T01:33:21;102884.08;;;-0.88;69.80
55044;BME280;54902;50.420;18.854;2023-02-11T01:33:53;102888.56;;;-0.87;69.82
55044;BME280;54902;50.420;18.854;2023-02-11T01:34:24;102891.26;;;-0.89;69.82
55044;BME280;54902;50.420;18.854;2023-02-11T01:34:54;102890.33;;;-0.89;69.81
55044;BME280;54902;50.420;18.854;2023-02-11T01:35:25;102885.89;;;-0.89;69.81
55044;BME280;54902;50.420;18.854;2023-02-11T01:36:00;102890.32;;;-0.88;69.76
55044;BME280;54902;50.420;18.854;2023-02-11T01:36:32;102884.96;;;-0.88;69.75
55044;BME280;54902;50.420;18.854;2023-02-11T01:37:03;102890.33;;;-0.89;69.76
55044;BME280;54902;50.420;18.854;2023-02-11T01:37:34;102889.45;;;-0.88;69.78
55044;BME280;54902;50.420;18.854;2023-02-11T01:38:43;102880.52;;;-0.89;69.79
55044;BME280;54902;50.420;18.854;2023-02-11T01:39:15;102886.77;;;-0.88;69.80
55044;BME280;54902;50.420;18.854;2023-02-11T01:39:46;102889.45;;;-0.88;69.79
55044;BME280;54902;50.420;18.854;2023-02-11T01:40:17;102880.52;;;-0.89;69.80
55044;BME280;54902;50.420;18.854;2023-02-11T01:40:54;102887.66;;;-0.89;69.79
55044;BME280;54902;50.420;18.854;2023-02-11T01:41:25;102870.66;;;-0.88;69.78
55044;BME280;54902;50.420;18.854;2023-02-11T01:41:56;102884.08;;;-0.88;69.69
55044;BME280;54902;50.420;18.854;2023-02-11T01:42:27;102883.19;;;-0.87;69.71
55044;BME280;54902;50.420;18.854;2023-02-11T01:42:58;102876.04;;;-0.88;69.73
55044;BME280;54902;50.420;18.854;2023-02-11T01:43:35;102872.48;;;-0.89;69.78
55044;BME280;54902;50.420;18.854;2023-02-11T01:44:50;102880.52;;;-0.89;69.87
55044;BME280;54902;50.420;18.854;2023-02-11T01:46:20;102884.96;;;-0.88;69.88
55044;BME280;54902;50.420;18.854;2023-02-11T01:46:49;102878.73;;;-0.88;69.86
55044;BME280;54902;50.420;18.854;2023-02-11T01:47:20;102874.23;;;-0.88;69.85
55044;BME280;54902;50.420;18.854;2023-02-11T01:47:51;102886.77;;;-0.88;69.85
55044;BME280;54902;50.420;18.854;2023-02-11T01:48:33;102882.27;;;-0.88;69.86
55044;BME280;54902;50.420;18.854;2023-02-11T01:49:16;102875.15;;;-0.87;69.89
55044;BME280;54902;50.420;18.854;2023-02-11T01:49:56;102873.35;;;-0.88;69.80
55044;BME280;54902;50.420;18.854;2023-02-11T01:50:27;102864.41;;;-0.90;69.78
55044;BME280;54902;50.420;18.854;2023-02-11T01:51:05;102869.79;;;-0.87;69.73
55044;BME280;54902;50.420;18.854;2023-02-11T01:51:43;102855.45;;;-0.86;69.71
55044;BME280;54902;50.420;18.854;2023-02-11T01:52:23;102862.61;;;-0.87;69.72
55044;BME280;54902;50.420;18.854;2023-02-11T01:52:55;102857.25;;;-0.87;69.70
55044;BME280;54902;50.420;18.854;2023-02-11T01:53:37;102856.36;;;-0.86;69.72
55044;BME280;54902;50.420;18.854;2023-02-11T01:54:23;102860.81;;;-0.86;69.75
55044;BME280;54902;50.420;18.854;2023-02-11T01:55:11;102857.24;;;-0.85;69.75
55044;BME280;54902;50.420;18.854;2023-02-11T01:55:55;102858.16;;;-0.85;69.75
55044;BME280;54902;50.420;18.854;2023-02-11T01:56:45;102858.16;;;-0.85;69.71
55044;BME280;54902;50.420;18.854;2023-02-11T01:57:33;102850.09;;;-0.83;69.71
55044;BME280;54902;50.420;18.854;2023-02-11T01:58:05;102842.05;;;-0.83;69.73
55044;BME280;54902;50.420;18.854;2023-02-11T01:58:38;102846.48;;;-0.82;69.72
55044;BME280;54902;50.420;18.854;2023-02-11T01:59:16;102841.13;;;-0.82;69.68
55044;BME280;54902;50.420;18.854;2023-02-11T02:00:34;102838.46;;;-0.81;69.74
55044;BME280;54902;50.420;18.854;2023-02-11T02:01:07;102841.15;;;-0.81;69.80
55044;BME280;54902;50.420;18.854;2023-02-11T02:01:40;102842.91;;;-0.81;69.77
55044;BME280;54902;50.420;18.854;2023-02-11T02:02:16;102833.97;;;-0.80;69.75
55044;BME280;54902;50.420;18.854;2023-02-11T02:03:32;102830.41;;;-0.79;69.78
55044;BME280;54902;50.420;18.854;2023-02-11T02:04:07;102830.38;;;-0.78;69.83
55044;BME280;54902;50.420;18.854;2023-02-11T02:04:45;102819.68;;;-0.79;69.84
55044;BME280;54902;50.420;18.854;2023-02-11T02:06:07;102817.84;;;-0.77;69.85
55044;BME280;54902;50.420;18.854;2023-02-11T02:06:51;102812.48;;;-0.77;69.82
55044;BME280;54902;50.420;18.854;2023-02-11T02:07:31;102814.28;;;-0.76;69.78
55044;BME280;54902;50.420;18.854;2023-02-11T02:08:52;102808.02;;;-0.75;69.75
55044;BME280;54902;50.420;18.854;2023-02-11T02:09:28;102811.59;;;-0.75;69.75
55044;BME280;54902;50.420;18.854;2023-02-11T02:10:07;102808.90;;;-0.75;69.74
55044;BME280;54902;50.420;18.854;2023-02-11T02:10:41;102812.48;;;-0.74;69.75
55044;BME280;54902;50.420;18.854;2023-02-11T02:11:13;102816.93;;;-0.73;69.86
55044;BME280;54902;50.420;18.854;2023-02-11T02:11:44;102811.56;;;-0.73;69.74
55044;BME280;54902;50.420;18.854;2023-02-11T02:12:15;102809.80;;;-0.73;69.74
55044;BME280;54902;50.420;18.854;2023-02-11T02:12:46;102816.04;;;-0.72;69.76
55044;BME280;54902;50.420;18.854;2023-02-11T02:13:17;102810.67;;;-0.72;69.83
55044;BME280;54902;50.420;18.854;2023-02-11T02:13:47;102804.42;;;-0.71;69.82
55044;BME280;54902;50.420;18.854;2023-02-11T02:14:19;102808.90;;;-0.70;69.81
55044;BME280;54902;50.420;18.854;2023-02-11T02:14:50;102808.90;;;-0.70;69.88
55044;BME280;54902;50.420;18.854;2023-02-11T02:15:28;102809.77;;;-0.70;69.90
55044;BME280;54902;50.420;18.854;2023-02-11T02:16:09;102809.77;;;-0.70;69.86
55044;BME280;54902;50.420;18.854;2023-02-11T02:16:43;102806.20;;;-0.69;69.83
55044;BME280;54902;50.420;18.854;2023-02-11T02:17:25;102811.56;;;-0.69;69.85
55044;BME280;54902;50.420;18.854;2023-02-11T02:19:35;102816.89;;;-0.66;69.82
55044;BME280;54902;50.420;18.854;2023-02-11T02:20:21;102817.77;;;-0.65;69.88
55044;BME280;54902;50.420;18.854;2023-02-11T02:27:28;102798.09;;;-0.63;70.10
55044;BME280;54902;50.420;18.854;2023-02-11T02:28:10;102798.07;;;-0.61;70.08
55044;BME280;54902;50.420;18.854;2023-02-11T02:33:59;102779.31;;;-0.60;70.06
55044;BME280;54902;50.420;18.854;2023-02-11T02:36:50;102770.34;;;-0.59;70.00
55044;BME280;54902;50.420;18.854;2023-02-11T02:37:34;102773.92;;;-0.58;70.01
55044;BME280;54902;50.420;18.854;2023-02-11T02:38:12;102755.15;;;-0.58;69.98
55044;BME280;54902;50.420;18.854;2023-02-11T02:38:52;102765.88;;;-0.58;69.99
55044;BME280;54902;50.420;18.854;2023-02-11T02:39:31;102762.27;;;-0.58;70.01
55044;BME280;54902;50.420;18.854;2023-02-11T02:40:10;102763.20;;;-0.58;70.01
55044;BME280;54902;50.420;18.854;2023-02-11T02:40:54;102765.88;;;-0.58;70.08
55044;BME280;54902;50.420;18.854;2023-02-11T02:41:29;102742.69;;;-0.68;70.12
55044;BME280;54902;50.420;18.854;2023-02-11T02:42:02;102764.06;;;-0.57;70.13
55044;BME280;54902;50.420;18.854;2023-02-11T02:42:35;102764.97;;;-0.56;70.17
55044;BME280;54902;50.420;18.854;2023-02-11T02:43:08;102758.69;;;-0.57;70.11
55044;BME280;54902;50.420;18.854;2023-02-11T02:43:45;102759.59;;;-0.56;70.10
55044;BME280;54902;50.420;18.854;2023-02-11T02:44:19;102751.55;;;-0.56;70.10
55044;BME280;54902;50.420;18.854;2023-02-11T02:44:51;102755.10;;;-0.56;70.13
55044;BME280;54902;50.420;18.854;2023-02-11T02:45:23;102742.59;;;-0.57;70.14
55044;BME280;54902;50.420;18.854;2023-02-11T02:45:54;102745.25;;;-0.55;70.17
55044;BME280;54902;50.420;18.854;2023-02-11T02:46:27;102742.56;;;-0.55;70.15
55044;BME280;54902;50.420;18.854;2023-02-11T02:46:58;102747.95;;;-0.55;70.18
55044;BME280;54902;50.420;18.854;2023-02-11T02:47:29;102748.85;;;-0.55;70.20
55044;BME280;54902;50.420;18.854;2023-02-11T02:48:00;102745.25;;;-0.55;70.22
55044;BME280;54902;50.420;18.854;2023-02-11T02:48:32;102745.25;;;-0.55;70.24
55044;BME280;54902;50.420;18.854;2023-02-11T02:49:09;102740.80;;;-0.55;70.21
55044;BME280;54902;50.420;18.854;2023-02-11T02:49:42;102747.03;;;-0.54;70.19
55044;BME280;54902;50.420;18.854;2023-02-11T02:50:15;102746.16;;;-0.55;70.24
55044;BME280;54902;50.420;18.854;2023-02-11T02:50:48;102746.16;;;-0.55;70.27
55044;BME280;54902;50.420;18.854;2023-02-11T02:52:09;102736.31;;;-0.54;70.32
55044;BME280;54902;50.420;18.854;2023-02-11T02:55:43;102732.73;;;-0.53;70.29
55044;BME280;54902;50.420;18.854;2023-02-11T03:01:24;102738.99;;;-0.54;70.48
55044;BME280;54902;50.420;18.854;2023-02-11T03:03:47;102751.54;;;-0.55;70.49
55044;BME280;54902;50.420;18.854;2023-02-11T03:05:05;102755.10;;;-0.56;70.44
55044;BME280;54902;50.420;18.854;2023-02-11T03:05:50;102754.23;;;-0.55;70.40
55044;BME280;54902;50.420;18.854;2023-02-11T03:06:33;102744.38;;;-0.56;70.40
55044;BME280;54902;50.420;18.854;2023-02-11T03:07:58;102765.86;;;-0.56;70.49
55044;BME280;54902;50.420;18.854;2023-02-11T03:10:10;102745.25;;;-0.55;70.39
55044;BME280;54902;50.420;18.854;2023-02-11T03:10:44;102741.70;;;-0.56;70.33
55044;BME280;54902;50.420;18.854;2023-02-11T03:11:17;102737.20;;;-0.55;70.33
55044;BME280;54902;50.420;18.854;2023-02-11T03:11:50;102733.66;;;-0.56;70.34
55044;BME280;54902;50.420;18.854;2023-02-11T03:12:23;102734.53;;;-0.57;70.35
55044;BME280;54902;50.420;18.854;2023-02-11T03:12:57;102733.66;;;-0.56;70.35
55044;BME280;54902;50.420;18.854;2023-02-11T03:13:32;102741.70;;;-0.56;70.36
55044;BME280;54902;50.420;18.854;2023-02-11T03:14:09;102739.89;;;-0.55;70.42
55044;BME280;54902;50.420;18.854;2023-02-11T03:14:41;102734.52;;;-0.55;70.35
55044;BME280;54902;50.420;18.854;2023-02-11T03:15:13;102737.20;;;-0.55;70.32
55044;BME280;54902;50.420;18.854;2023-02-11T03:15:48;102739.89;;;-0.55;70.36
55044;BME280;54902;50.420;18.854;2023-02-11T03:16:25;102724.70;;;-0.55;70.37
55044;BME280;54902;50.420;18.854;2023-02-11T03:16:58;102733.66;;;-0.56;70.39
55044;BME280;54902;50.420;18.854;2023-02-11T03:17:33;102728.27;;;-0.56;70.38
55044;BME280;54902;50.420;18.854;2023-02-11T03:18:05;102733.66;;;-0.56;70.39
55044;BME280;54902;50.420;18.854;2023-02-11T03:18:41;102730.06;;;-0.55;70.38
55044;BME280;54902;50.420;18.854;2023-02-11T03:19:20;102728.27;;;-0.56;70.38
55044;BME280;54902;50.420;18.854;2023-02-11T03:19:52;102726.49;;;-0.57;70.38
55044;BME280;54902;50.420;18.854;2023-02-11T03:20:26;102726.47;;;-0.55;70.37
55044;BME280;54902;50.420;18.854;2023-02-11T03:21:00;102731.84;;;-0.55;70.39
55044;BME280;54902;50.420;18.854;2023-02-11T03:21:34;102722.90;;;-0.56;70.44
55044;BME280;54902;50.420;18.854;2023-02-11T03:22:12;102716.66;;;-0.56;70.45
55044;BME280;54902;50.420;18.854;2023-02-11T03:22:54;102722.90;;;-0.56;70.47
55044;BME280;54902;50.420;18.854;2023-02-11T03:23:34;102724.70;;;-0.56;70.48
55044;BME280;54902;50.420;18.854;2023-02-11T03:24:09;102722.90;;;-0.56;70.48
55044;BME280;54902;50.420;18.854;2023-02-11T03:24:43;102722.02;;;-0.55;70.48
55044;BME280;54902;50.420;18.854;2023-02-11T03:25:15;102716.64;;;-0.55;70.48
55044;BME280;54902;50.420;18.854;2023-02-11T03:25:57;102718.42;;;-0.55;70.46